Phoenix, AZ

1:05 PM MST on October 25, 2014 (GMT -0700)
HADS USRCRN SITE AT SOUTH MOUNTAIN RE AZ US | Change Station
CLOSE
Current Station
Personal Weather Station
Location: Phoenix, AZ
Elevation: 1402 ft
Nearby Weather Stations

Elev 1402 ft 33.35 °N, 112.08 °W | Updated 145 days ago

Partly Cloudy
Partly Cloudy
93 °F
Feels Like 93 °F
N
3
Wind Variable Wind from SSW
Gusts 3 mph

Today
High -- | Low -- °F
--% Chance of Precip.
Yesterday
High -- | Low -- °F
Precip. -- in
6:40 AM 5:43 PM
Waxing Crescent, 4% visible
Pressure 29.91 in
Visibility 10.0 miles
Clouds Few 12000 ft
Scattered Clouds 15000 ft
Scattered Clouds 20000 ft
Dew Point 54 °F
Humidity 26%
Rainfall -999.00 in
Snow Depth Not available.
UV 5 out of 12
Pollen 5.40 out of 12
Ozone Good
PM2.5 Good
Flu Activity No Activity
METAR KPHX 251951Z 29006KT 10SM FEW120 SCT150 SCT200 33/08 A2997 RMK AO2 SLP129 T03330083

More Conditions Fewer Conditions

Pressure 29.91 in
Visibility 10.0 miles
Clouds Few 12000 ft
Scattered Clouds 15000 ft
Scattered Clouds 20000 ft
Dew Point 54 °F
Humidity 26%
Rainfall -999.00 in
Snow Depth Not available.
UV 5 out of 12
Pollen 5.40 out of 12
Ozone Good
PM2.5 Good
Flu Activity No Activity
METAR KPHX 251951Z 29006KT 10SM FEW120 SCT150 SCT200 33/08 A2997 RMK AO2 SLP129 T03330083

More Conditions Fewer Conditions

10-Day Weather Forecast

Almanac

Astronomy

Oct. 25, 2014 Rise Set
Actual Time 6:40 AM MST 5:43 PM MST
Civil Twilight 6:15 AM MST 6:08 PM MST
Nautical Twilight 5:46 AM MST 6:37 PM MST
Astronomical Twilight 5:17 AM MST 7:06 PM MST
Moon 8:19 AM MST 7:13 PM MST
Length of Visible Light 11h 53m
Length of Day
11h 02m
Tomorrow will be 1m 53s shorter.
Waxing Crescent, 4% of the Moon is Illuminated
Today
Waxing Crescent
Oct 30
First Quarter
Nov 6
Full
Nov 14
Last Quarter
Nov 22
New

Today's Extremes

State Highs State Lows

Community

WunderPhotos

Upload Photos

1,764,976 photos uploaded!

Nearby

Air Quality

  Air Quality AQ Index Pollutant
Yesterday Moderate
PM2.5
Yesterday Good
OZONE
Current Good
PM2.5
Current Good
OZONE
Saturday Good
PM2.5
Saturday Good
OZONE
Saturday Good
CO
Sunday Good
PM2.5
Sunday Good
OZONE
Sunday Good
CO

Snow Depth

Station Depth Elevation
Workman Creek 1 in 6900 ft
Baker Butte 0 in 7300 ft
Wildcat 0 in 7850 ft
Baldy 0 in 9125 ft

Earthquake Activity

City Distance Mag. Time & Date
No recent earthquake activity has been reported nearby.
Minimum magnitude displayed is 2.5.

Coastal Water Temperatures

Place Temperature
No Stations Reporting

Nearby Weather Stations